Time;durP1;ratioP1;P1;durP2;ratioP2;P2;SDS_P1;SDS_P2;PMS_P1;PMS_P2;Temp;Humidity;BMP_temperature;BMP_pressure;BME280_temperature;BME280_humidity;BME280_pressure;Samples;Min_cycle;Max_cycle;Signal;HPM_P1;HPM_P2
2023/08/26 00:01:37;;;;;;;4.23;3.80;;;21.30;1.00;;;;;;5022426;28;21041;-73
2023/08/26 00:04:04;;;;;;;3.97;3.67;;;21.40;1.00;;;;;;5022510;28;20428;-73
2023/08/26 00:06:31;;;;;;;4.30;3.93;;;21.40;1.00;;;;;;5023054;28;20556;-72
2023/08/26 00:08:58;;;;;;;6.27;4.30;;;21.40;1.00;;;;;;5022505;28;20506;-73
2023/08/26 00:11:26;;;;;;;4.00;3.60;;;21.50;1.00;;;;;;5022044;28;20464;-72
2023/08/26 00:13:53;;;;;;;3.77;3.47;;;21.50;1.00;;;;;;5020638;28;20547;-72
2023/08/26 00:16:21;;;;;;;4.40;3.60;;;21.50;1.00;;;;;;5025562;28;20498;-72
2023/08/26 00:18:49;;;;;;;4.23;3.43;;;21.50;1.00;;;;;;5022539;28;20471;-73
2023/08/26 00:21:17;;;;;;;3.90;3.60;;;21.50;1.00;;;;;;5019945;28;20465;-73
2023/08/26 00:23:44;;;;;;;5.00;4.07;;;21.50;1.00;;;;;;5021646;28;20466;-73
2023/08/26 00:26:11;;;;;;;3.80;3.50;;;21.50;1.00;;;;;;5025542;28;20528;-73
2023/08/26 00:28:39;;;;;;;3.97;3.60;;;21.40;1.00;;;;;;5022382;28;20483;-73
2023/08/26 00:31:06;;;;;;;4.20;3.80;;;21.30;1.00;;;;;;5022129;28;20463;-73
2023/08/26 00:33:33;;;;;;;4.27;3.70;;;21.20;1.00;;;;;;5021043;28;20978;-73
2023/08/26 00:36:00;;;;;;;3.67;3.37;;;21.20;1.00;;;;;;5022670;28;21068;-73
2023/08/26 00:38:28;;;;;;;3.90;3.57;;;21.20;1.00;;;;;;5023373;28;20583;-73
2023/08/26 00:40:55;;;;;;;5.30;4.90;;;21.20;1.00;;;;;;5025366;28;20471;-72
2023/08/26 00:43:22;;;;;;;5.00;3.60;;;21.20;1.00;;;;;;5025056;28;20470;-72
2023/08/26 00:45:51;;;;;;;4.70;3.70;;;21.20;1.00;;;;;;5025682;28;21071;-73
2023/08/26 00:48:19;;;;;;;4.00;3.60;;;21.20;1.00;;;;;;5023610;28;20471;-72
2023/08/26 00:50:48;;;;;;;3.80;3.47;;;21.10;1.00;;;;;;5022119;28;20511;-73
2023/08/26 00:53:17;;;;;;;3.83;3.53;;;21.10;1.00;;;;;;5022681;28;21010;-72
2023/08/26 00:55:44;;;;;;;4.60;3.20;;;21.10;1.00;;;;;;5023960;28;20488;-72
2023/08/26 00:58:12;;;;;;;4.73;3.03;;;21.10;1.00;;;;;;5028450;28;20560;-73
2023/08/26 01:00:39;;;;;;;3.23;2.93;;;21.10;1.00;;;;;;5026033;28;20455;-74
2023/08/26 01:03:08;;;;;;;3.53;3.23;;;21.00;1.00;;;;;;5107820;22;20456;-78
2023/08/26 01:05:36;;;;;;;3.60;3.30;;;21.00;1.00;;;;;;5027965;28;20472;-77
2023/08/26 01:08:06;;;;;;;3.60;3.30;;;21.00;1.00;;;;;;5026299;28;20473;-77
2023/08/26 01:10:41;;;;;;;3.43;2.90;;;21.00;1.00;;;;;;5029302;28;20538;-76
2023/08/26 01:13:12;;;;;;;3.47;2.87;;;20.90;1.00;;;;;;5027803;28;20494;-78
2023/08/26 01:15:42;;;;;;;3.77;3.47;;;21.00;1.00;;;;;;5013172;28;20467;-77
2023/08/26 01:18:13;;;;;;;5.77;3.37;;;21.10;1.00;;;;;;5025350;28;20488;-78
2023/08/26 01:20:41;;;;;;;3.77;3.10;;;21.10;1.00;;;;;;5027467;28;20478;-77
2023/08/26 01:23:11;;;;;;;3.17;2.87;;;21.20;1.00;;;;;;5027299;28;20594;-76
2023/08/26 01:25:42;;;;;;;3.87;2.70;;;21.10;1.00;;;;;;5032902;28;20466;-76
2023/08/26 01:28:09;;;;;;;3.63;2.70;;;21.10;1.00;;;;;;5027256;28;20466;-76
2023/08/26 01:30:37;;;;;;;2.80;2.60;;;21.10;1.00;;;;;;5026681;28;20457;-76
2023/08/26 01:33:13;;;;;;;3.43;3.13;;;21.10;1.00;;;;;;5023311;28;20468;-77
2023/08/26 01:35:44;;;;;;;5.27;3.10;;;21.10;1.00;;;;;;5026131;28;20453;-76
2023/08/26 01:38:14;;;;;;;3.10;2.80;;;21.10;1.00;;;;;;5024952;28;20914;-76
2023/08/26 01:40:48;;;;;;;2.93;2.63;;;21.10;1.00;;;;;;5025836;28;20466;-76
2023/08/26 01:43:18;;;;;;;3.03;2.70;;;21.00;1.00;;;;;;5026560;28;20963;-76
2023/08/26 01:45:46;;;;;;;3.87;2.90;;;21.00;1.00;;;;;;5027437;28;20484;-76
2023/08/26 01:48:13;;;;;;;4.10;3.07;;;21.00;1.00;;;;;;5026548;28;20466;-78
2023/08/26 01:50:40;;;;;;;3.47;2.90;;;21.00;1.00;;;;;;5029723;28;20472;-77
2023/08/26 01:53:08;;;;;;;6.67;2.73;;;21.10;1.00;;;;;;5027021;28;20461;-77
2023/08/26 01:55:35;;;;;;;3.43;3.13;;;21.10;1.00;;;;;;5025576;28;20458;-77
2023/08/26 01:58:04;;;;;;;3.27;2.87;;;21.00;1.00;;;;;;5029214;28;21014;-78
2023/08/26 02:00:31;;;;;;;2.57;2.37;;;21.00;1.00;;;;;;5025388;28;20517;-77
2023/08/26 02:02:58;;;;;;;2.97;2.70;;;21.00;1.00;;;;;;5026809;28;20510;-77
2023/08/26 02:05:25;;;;;;;4.57;2.73;;;20.90;1.00;;;;;;5026464;28;20459;-77
2023/08/26 02:07:52;;;;;;;4.97;3.20;;;20.90;1.00;;;;;;5028787;28;20873;-76
2023/08/26 02:10:19;;;;;;;2.93;2.67;;;20.80;1.00;;;;;;5026121;28;20939;-76
2023/08/26 02:12:46;;;;;;;2.70;2.40;;;20.90;1.00;;;;;;5028492;28;21250;-78
2023/08/26 02:15:14;;;;;;;4.37;2.83;;;20.80;1.00;;;;;;5026659;28;21183;-77
2023/08/26 02:17:41;;;;;;;3.00;2.60;;;20.80;1.00;;;;;;5029506;28;20475;-76
2023/08/26 02:20:09;;;;;;;3.90;2.97;;;20.80;1.00;;;;;;5025991;28;20467;-77
2023/08/26 02:22:36;;;;;;;3.20;2.70;;;20.80;1.00;;;;;;5030179;28;20836;-76
2023/08/26 02:25:04;;;;;;;3.77;3.00;;;20.80;1.00;;;;;;5026149;28;20454;-77
2023/08/26 02:27:31;;;;;;;3.20;2.90;;;20.80;1.00;;;;;;5029644;28;20477;-77
2023/08/26 02:29:58;;;;;;;3.30;3.00;;;20.80;1.00;;;;;;5028798;28;20521;-77
2023/08/26 02:32:27;;;;;;;3.17;2.90;;;20.70;1.00;;;;;;5027746;28;21401;-77
2023/08/26 02:34:55;;;;;;;3.50;3.00;;;20.70;1.00;;;;;;5031184;28;20500;-77
2023/08/26 02:37:22;;;;;;;4.70;3.10;;;20.60;1.00;;;;;;5036798;28;20487;-77
2023/08/26 02:39:50;;;;;;;3.37;2.90;;;20.60;1.00;;;;;;5027843;28;20616;-79
2023/08/26 02:42:21;;;;;;;3.40;3.10;;;20.60;1.00;;;;;;5025658;28;20962;-76
2023/08/26 02:44:48;;;;;;;4.33;3.13;;;20.60;1.00;;;;;;5030382;28;20463;-76
2023/08/26 02:47:15;;;;;;;5.50;3.70;;;20.60;1.00;;;;;;5027906;28;20537;-77
2023/08/26 02:49:48;;;;;;;3.57;3.27;;;20.60;1.00;;;;;;5027761;28;20466;-78
2023/08/26 02:52:15;;;;;;;3.73;3.40;;;20.50;1.00;;;;;;5031275;28;20611;-78
2023/08/26 02:54:42;;;;;;;4.70;3.90;;;20.50;1.00;;;;;;5026769;28;20467;-77
2023/08/26 02:57:09;;;;;;;4.57;3.30;;;20.50;1.00;;;;;;5029681;28;20534;-76
2023/08/26 02:59:36;;;;;;;3.47;3.17;;;20.60;1.00;;;;;;5029525;28;20493;-76
2023/08/26 03:02:04;;;;;;;3.73;3.40;;;20.50;1.00;;;;;;5027830;28;20901;-76
2023/08/26 03:04:31;;;;;;;4.70;3.80;;;20.40;1.00;;;;;;5027662;28;20450;-76
2023/08/26 03:07:01;;;;;;;3.67;3.37;;;20.40;1.00;;;;;;5017756;28;20463;-76
2023/08/26 03:09:29;;;;;;;3.43;3.23;;;20.30;1.00;;;;;;5026171;28;20988;-77
2023/08/26 03:11:56;;;;;;;4.53;3.10;;;20.30;1.00;;;;;;5022337;28;20469;-77
2023/08/26 03:14:25;;;;;;;4.20;3.30;;;20.30;1.00;;;;;;5027171;28;21023;-78
2023/08/26 03:16:52;;;;;;;4.10;3.70;;;20.30;1.00;;;;;;5029890;28;20958;-77
2023/08/26 03:19:19;;;;;;;4.00;3.43;;;20.30;1.00;;;;;;5026676;28;20538;-76
2023/08/26 03:21:47;;;;;;;3.67;3.37;;;20.40;1.00;;;;;;5024173;28;20511;-76
2023/08/26 03:24:16;;;;;;;5.63;3.20;;;20.40;1.00;;;;;;5028811;28;20882;-77
2023/08/26 03:26:43;;;;;;;4.50;3.80;;;20.50;1.00;;;;;;5028957;28;20991;-77
2023/08/26 03:29:10;;;;;;;4.77;3.50;;;20.40;1.00;;;;;;5027796;28;20455;-76
2023/08/26 03:31:38;;;;;;;4.07;3.13;;;20.40;1.00;;;;;;5028582;28;20480;-76
2023/08/26 03:34:05;;;;;;;4.33;3.63;;;20.40;1.00;;;;;;5029823;28;20482;-76
2023/08/26 03:36:32;;;;;;;5.57;3.93;;;20.40;1.00;;;;;;5026437;28;20477;-75
2023/08/26 03:38:59;;;;;;;4.40;3.30;;;20.40;1.00;;;;;;5028687;28;20516;-78
2023/08/26 03:41:27;;;;;;;6.17;3.47;;;20.30;1.00;;;;;;5027714;28;20470;-78
2023/08/26 03:43:56;;;;;;;4.50;3.67;;;20.20;1.00;;;;;;5029861;28;20436;-76
2023/08/26 03:46:23;;;;;;;3.93;3.53;;;20.10;1.00;;;;;;5029852;28;20478;-76
2023/08/26 03:48:50;;;;;;;4.57;3.60;;;20.10;1.00;;;;;;5029862;28;20975;-76
2023/08/26 03:51:17;;;;;;;3.90;3.60;;;20.10;1.00;;;;;;5029958;28;20471;-76
2023/08/26 03:53:44;;;;;;;6.53;4.07;;;20.10;1.00;;;;;;5023825;28;20972;-76
2023/08/26 03:56:11;;;;;;;4.17;3.50;;;20.00;1.00;;;;;;5030599;28;20528;-76
2023/08/26 03:58:40;;;;;;;3.60;3.27;;;19.90;1.00;;;;;;5029708;28;20799;-77
2023/08/26 04:01:07;;;;;;;4.50;3.67;;;20.00;1.00;;;;;;5027067;28;20492;-79
2023/08/26 04:03:35;;;;;;;3.00;2.80;;;20.00;1.00;;;;;;5018714;28;20977;-78
2023/08/26 04:06:04;;;;;;;7.00;3.87;;;20.00;1.00;;;;;;5026231;28;20444;-78
2023/08/26 04:08:32;;;;;;;5.50;4.03;;;20.10;1.00;;;;;;5029645;28;20532;-77
2023/08/26 04:11:00;;;;;;;7.87;4.30;;;20.00;1.00;;;;;;5023362;28;20896;-77
2023/08/26 04:13:29;;;;;;;4.30;3.90;;;20.00;1.00;;;;;;5021154;28;20552;-77
2023/08/26 04:15:58;;;;;;;5.23;4.27;;;20.00;1.00;;;;;;5030124;28;20506;-77
2023/08/26 04:18:26;;;;;;;3.83;3.20;;;20.00;1.00;;;;;;5029441;28;20488;-77
2023/08/26 04:20:53;;;;;;;4.50;4.13;;;20.00;1.00;;;;;;5029863;28;20972;-77
2023/08/26 04:23:20;;;;;;;3.80;3.47;;;20.00;1.00;;;;;;5030205;28;20969;-77
2023/08/26 04:25:47;;;;;;;6.10;3.80;;;19.90;1.00;;;;;;5026725;28;20523;-76
2023/08/26 04:28:15;;;;;;;6.00;4.03;;;20.00;1.00;;;;;;5030099;28;20591;-77
2023/08/26 04:30:42;;;;;;;6.70;4.13;;;20.00;1.00;;;;;;5031293;28;20465;-77
2023/08/26 04:33:11;;;;;;;4.60;3.93;;;20.00;1.00;;;;;;5023213;28;20464;-77
2023/08/26 04:35:41;;;;;;;5.13;4.20;;;20.10;1.00;;;;;;5027654;28;20556;-76
2023/08/26 04:38:08;;;;;;;4.53;4.10;;;20.10;1.00;;;;;;5028076;28;20471;-77
2023/08/26 04:40:35;;;;;;;8.60;3.90;;;20.10;1.00;;;;;;5026437;28;20476;-77
2023/08/26 04:43:03;;;;;;;5.40;4.80;;;20.10;1.00;;;;;;5020579;28;21048;-77
2023/08/26 04:45:30;;;;;;;4.93;4.47;;;20.10;1.00;;;;;;5031070;28;20433;-77
2023/08/26 04:47:57;;;;;;;5.60;5.10;;;20.20;1.00;;;;;;5029763;28;20569;-78
2023/08/26 04:50:30;;;;;;;6.03;4.53;;;20.30;1.00;;;;;;5031499;28;20509;-78
2023/08/26 04:52:57;;;;;;;4.73;4.33;;;20.30;1.00;;;;;;5026329;28;20421;-77
2023/08/26 04:55:24;;;;;;;8.00;7.20;;;20.30;1.00;;;;;;5032279;28;20500;-77
2023/08/26 04:57:52;;;;;;;5.77;5.17;;;20.30;1.00;;;;;;5026253;28;20466;-77
2023/08/26 05:00:19;;;;;;;4.80;4.33;;;20.30;1.00;;;;;;5028967;28;20467;-77
2023/08/26 05:02:46;;;;;;;7.13;5.70;;;20.20;1.00;;;;;;5029254;28;20475;-77
2023/08/26 05:05:14;;;;;;;5.17;4.67;;;20.20;1.00;;;;;;5029494;28;20477;-77
2023/08/26 05:07:44;;;;;;;5.90;5.23;;;20.20;1.00;;;;;;5027176;28;20468;-76
2023/08/26 05:10:11;;;;;;;5.40;4.90;;;20.20;1.00;;;;;;5028272;28;20903;-77
2023/08/26 05:12:38;;;;;;;6.03;5.10;;;20.30;1.00;;;;;;5027286;28;20481;-78
2023/08/26 05:15:06;;;;;;;5.10;4.60;;;20.30;1.00;;;;;;5024374;28;20446;-77
2023/08/26 05:17:33;;;;;;;7.87;5.30;;;20.30;1.00;;;;;;5028056;28;20470;-76
2023/08/26 05:20:00;;;;;;;6.50;5.80;;;20.30;1.00;;;;;;5029212;28;20453;-77
2023/08/26 05:22:27;;;;;;;6.87;5.50;;;20.30;1.00;;;;;;5025862;28;20461;-79
2023/08/26 05:24:56;;;;;;;11.07;5.80;;;20.30;1.00;;;;;;5027728;28;20559;-77
2023/08/26 05:27:23;;;;;;;6.90;5.20;;;20.20;1.00;;;;;;5026299;28;20478;-76
2023/08/26 05:29:51;;;;;;;6.40;5.20;;;20.10;1.00;;;;;;5029159;28;20467;-78
2023/08/26 05:32:20;;;;;;;10.80;9.90;;;20.20;1.00;;;;;;5029107;28;20465;-77
2023/08/26 05:34:47;;;;;;;6.60;6.00;;;20.20;1.00;;;;;;5029953;28;20894;-77
2023/08/26 05:37:14;;;;;;;8.33;5.67;;;20.20;1.00;;;;;;5032283;28;20437;-77
2023/08/26 05:39:41;;;;;;;6.33;5.60;;;20.10;1.00;;;;;;5030354;28;20987;-77
2023/08/26 05:42:09;;;;;;;6.40;5.53;;;20.10;1.00;;;;;;5032111;28;20828;-78
2023/08/26 05:44:36;;;;;;;7.77;6.50;;;20.10;1.00;;;;;;5026620;28;20997;-77
2023/08/26 05:47:03;;;;;;;6.50;5.37;;;20.20;1.00;;;;;;5031808;28;20469;-77
2023/08/26 05:49:30;;;;;;;7.33;6.60;;;20.10;1.00;;;;;;5033638;28;21059;-78
2023/08/26 05:51:58;;;;;;;6.80;5.53;;;20.10;1.00;;;;;;5026706;28;21026;-75
2023/08/26 05:54:25;;;;;;;8.10;6.30;;;20.00;1.00;;;;;;5032519;28;20505;-76
2023/08/26 05:56:52;;;;;;;7.47;6.63;;;19.90;1.00;;;;;;5030396;28;20468;-78
2023/08/26 05:59:20;;;;;;;7.37;6.37;;;19.90;1.00;;;;;;5031688;28;20440;-78
2023/08/26 06:01:47;;;;;;;6.60;6.00;;;19.80;1.00;;;;;;5029226;28;20883;-77
2023/08/26 06:04:14;;;;;;;7.33;6.17;;;19.90;1.00;;;;;;5029186;28;20446;-78
2023/08/26 06:06:41;;;;;;;7.13;6.33;;;19.90;1.00;;;;;;5031007;28;20520;-77
2023/08/26 06:09:09;;;;;;;7.53;6.50;;;19.90;1.00;;;;;;5029210;28;20474;-77
2023/08/26 06:11:37;;;;;;;8.97;6.47;;;19.80;1.00;;;;;;5030837;28;20875;-76
2023/08/26 06:14:03;;;;;;;8.40;7.07;;;19.80;1.00;;;;;;5030394;28;20564;-77
2023/08/26 06:16:31;;;;;;;8.33;7.50;;;19.90;1.00;;;;;;5031282;28;21107;-78
2023/08/26 06:18:58;;;;;;;8.27;7.40;;;19.90;1.00;;;;;;5027865;28;20509;-77
2023/08/26 06:21:25;;;;;;;8.10;6.90;;;19.90;1.00;;;;;;5029301;28;20429;-76
2023/08/26 06:23:53;;;;;;;7.30;6.60;;;20.00;1.00;;;;;;5031491;28;20539;-78
2023/08/26 06:26:20;;;;;;;6.77;6.10;;;20.10;1.00;;;;;;5031726;28;20846;-77
2023/08/26 06:28:47;;;;;;;7.40;6.80;;;20.10;1.00;;;;;;5030969;28;20502;-77
2023/08/26 06:31:14;;;;;;;7.87;7.07;;;20.20;1.00;;;;;;5030728;28;20470;-78
2023/08/26 06:33:42;;;;;;;7.37;6.70;;;20.30;1.00;;;;;;5034646;28;20985;-78
2023/08/26 06:36:09;;;;;;;7.30;6.70;;;20.30;1.00;;;;;;5029441;28;20488;-78
2023/08/26 06:38:36;;;;;;;10.27;7.43;;;20.30;1.00;;;;;;5027498;28;20566;-77
2023/08/26 06:41:03;;;;;;;8.90;7.53;;;20.30;1.00;;;;;;5033918;28;20483;-78
2023/08/26 06:43:30;;;;;;;8.93;8.03;;;20.40;1.00;;;;;;5029636;28;20989;-76
2023/08/26 06:45:59;;;;;;;8.33;7.30;;;20.40;1.00;;;;;;5033936;28;20540;-78
2023/08/26 06:48:26;;;;;;;8.80;7.90;;;20.50;1.00;;;;;;5033352;28;20474;-77
2023/08/26 06:50:54;;;;;;;7.13;6.53;;;20.50;1.00;;;;;;5030417;28;20875;-77
2023/08/26 06:53:21;;;;;;;10.27;7.77;;;20.60;1.00;;;;;;5028158;28;20482;-76
2023/08/26 06:55:50;;;;;;;8.50;7.70;;;20.70;1.00;;;;;;5025875;28;20455;-77
2023/08/26 06:58:19;;;;;;;7.93;7.23;;;20.80;1.00;;;;;;5026956;28;20456;-77
2023/08/26 07:00:46;;;;;;;9.70;7.43;;;20.70;1.00;;;;;;5027856;28;21134;-77
2023/08/26 07:03:13;;;;;;;8.30;7.50;;;20.80;1.00;;;;;;5030389;28;23865;-78
2023/08/26 07:05:43;;;;;;;8.50;7.30;;;20.70;1.00;;;;;;5030361;28;20530;-78
2023/08/26 07:08:13;;;;;;;9.13;7.13;;;20.80;1.00;;;;;;5031955;28;20489;-77
2023/08/26 07:10:40;;;;;;;8.23;7.50;;;20.90;1.00;;;;;;5028904;28;20459;-78
2023/08/26 07:13:07;;;;;;;10.80;8.20;;;21.00;1.00;;;;;;5029393;28;20465;-78
2023/08/26 07:15:36;;;;;;;9.37;8.00;;;21.10;1.00;;;;;;5029607;28;20452;-78
2023/08/26 07:18:03;;;;;;;9.23;8.27;;;21.30;1.00;;;;;;5029368;28;20453;-78
2023/08/26 07:20:30;;;;;;;9.27;8.20;;;21.40;1.00;;;;;;5029250;28;20476;-77
2023/08/26 07:22:57;;;;;;;8.53;7.83;;;21.70;1.00;;;;;;5027345;28;20887;-78
2023/08/26 07:25:26;;;;;;;9.30;7.90;;;21.80;1.00;;;;;;5025992;28;20475;-78
2023/08/26 07:27:53;;;;;;;8.50;7.70;;;21.90;1.00;;;;;;5024757;28;20838;-78
2023/08/26 07:30:21;;;;;;;11.73;8.30;;;22.00;1.00;;;;;;5030215;28;20511;-77
2023/08/26 07:32:47;;;;;;;8.10;7.30;;;21.90;1.00;;;;;;5029399;28;20473;-78
2023/08/26 07:35:15;;;;;;;7.87;7.17;;;22.00;1.00;;;;;;5026562;28;20542;-77
2023/08/26 07:37:42;;;;;;;7.47;6.80;;;22.00;1.00;;;;;;5028679;28;20495;-78
2023/08/26 07:40:15;;;;;;;8.67;7.70;;;22.00;1.00;;;;;;5029510;28;20496;-78
2023/08/26 07:42:45;;;;;;;8.83;7.53;;;22.10;1.00;;;;;;5029183;28;20477;-79
2023/08/26 07:45:12;;;;;;;8.73;7.93;;;22.10;1.00;;;;;;5028234;28;20426;-79
2023/08/26 07:47:41;;;;;;;10.07;9.23;;;22.10;1.00;;;;;;5012435;28;20460;-78
2023/08/26 07:50:09;;;;;;;9.27;8.47;;;22.10;1.00;;;;;;5019055;28;20869;-78
2023/08/26 07:52:38;;;;;;;10.83;9.83;;;22.10;1.00;;;;;;5020755;28;20448;-77
2023/08/26 07:55:08;;;;;;;9.60;8.80;;;21.90;1.00;;;;;;5031261;28;20464;-78
2023/08/26 07:57:35;;;;;;;9.47;8.57;;;21.90;1.00;;;;;;5031687;28;20509;-78
2023/08/26 08:00:05;;;;;;;9.93;9.10;;;21.80;1.00;;;;;;5030594;28;21010;-79
2023/08/26 08:02:32;;;;;;;9.80;8.90;;;21.60;1.00;;;;;;5025947;28;20566;-78
2023/08/26 08:04:59;;;;;;;10.00;9.20;;;21.50;1.00;;;;;;5024288;28;20537;-78
2023/08/26 08:07:26;;;;;;;10.27;9.23;;;21.40;1.00;;;;;;5027253;28;20924;-79
2023/08/26 08:09:55;;;;;;;11.30;9.60;;;21.30;1.00;;;;;;5029810;28;21784;-80
2023/08/26 08:12:23;;;;;;;10.50;9.57;;;21.30;1.00;;;;;;5026982;28;20857;-79
2023/08/26 08:14:50;;;;;;;9.67;8.83;;;21.30;1.00;;;;;;5023125;28;20439;-77
2023/08/26 08:17:19;;;;;;;11.33;10.37;;;21.40;1.00;;;;;;5047301;28;20645;-77
2023/08/26 08:19:46;;;;;;;10.43;9.40;;;21.40;1.00;;;;;;5028441;28;20495;-77
2023/08/26 08:22:16;;;;;;;10.27;9.27;;;21.40;1.00;;;;;;5029899;28;20995;-78
2023/08/26 08:24:43;;;;;;;11.10;10.20;;;21.40;1.00;;;;;;5012684;28;20483;-79
2023/08/26 08:27:10;;;;;;;10.83;9.90;;;21.50;1.00;;;;;;5012392;28;20993;-78
2023/08/26 08:29:37;;;;;;;12.20;11.07;;;21.50;1.00;;;;;;5027754;28;20500;-77
2023/08/26 08:32:04;;;;;;;11.13;10.13;;;21.50;1.00;;;;;;5029536;28;20483;-78
2023/08/26 08:34:33;;;;;;;11.77;10.80;;;21.60;1.00;;;;;;5029718;28;20454;-78
2023/08/26 08:37:01;;;;;;;14.50;11.10;;;21.50;1.00;;;;;;5024937;28;20467;-77
2023/08/26 08:39:28;;;;;;;10.80;9.90;;;21.60;1.00;;;;;;5027439;28;20565;-78
2023/08/26 08:41:56;;;;;;;12.67;11.47;;;21.50;1.00;;;;;;5026708;28;20484;-79
2023/08/26 08:44:27;;;;;;;11.37;10.17;;;21.60;1.00;;;;;;5028348;28;20462;-77
2023/08/26 08:46:54;;;;;;;12.00;10.90;;;21.80;1.00;;;;;;5025515;28;20574;-79
2023/08/26 08:49:21;;;;;;;12.70;11.60;;;22.10;1.00;;;;;;5024652;28;20581;-80
2023/08/26 08:51:50;;;;;;;11.07;10.10;;;22.30;1.00;;;;;;5029081;28;20955;-80
2023/08/26 08:54:17;;;;;;;11.93;10.63;;;22.50;1.00;;;;;;5022137;28;21113;-78
2023/08/26 08:56:46;;;;;;;9.97;9.20;;;22.50;1.00;;;;;;5027176;28;22043;-80
2023/08/26 08:59:14;;;;;;;9.73;8.83;;;22.50;1.00;;;;;;5026245;28;20453;-80
2023/08/26 09:01:42;;;;;;;11.00;10.00;;;22.50;1.00;;;;;;5018142;28;20474;-80
2023/08/26 09:04:11;;;;;;;8.90;8.10;;;22.60;1.00;;;;;;5044457;28;20438;-78
2023/08/26 09:06:38;;;;;;;9.93;8.97;;;22.70;1.00;;;;;;5024611;28;20455;-79
2023/08/26 09:09:10;;;;;;;8.73;8.03;;;22.80;1.00;;;;;;5021400;28;20500;-79
2023/08/26 09:11:38;;;;;;;8.37;7.77;;;22.80;1.00;;;;;;5030011;28;20461;-79
2023/08/26 09:14:05;;;;;;;8.50;7.77;;;22.70;1.00;;;;;;5028757;28;20461;-79
2023/08/26 09:16:35;;;;;;;7.10;6.57;;;22.80;1.00;;;;;;5025401;28;20480;-78
2023/08/26 09:19:04;;;;;;;8.80;8.00;;;22.80;1.00;;;;;;5020654;28;20450;-78
2023/08/26 09:21:43;;;;;;;8.33;7.63;;;22.90;1.00;;;;;;5030615;28;20479;-79
2023/08/26 09:24:13;;;;;;;8.17;7.57;;;23.00;1.00;;;;;;5038544;28;20439;-80
2023/08/26 09:26:41;;;;;;;8.47;7.77;;;23.10;1.00;;;;;;5026485;28;20540;-80
2023/08/26 09:29:17;;;;;;;9.77;8.97;;;23.20;1.00;;;;;;5031992;28;20535;-78
2023/08/26 09:31:49;;;;;;;7.33;6.63;;;23.30;1.00;;;;;;5020701;28;20578;-79
2023/08/26 09:34:24;;;;;;;6.33;5.80;;;23.60;1.00;;;;;;5032172;28;20476;-77
2023/08/26 09:36:51;;;;;;;5.40;5.00;;;23.70;1.00;;;;;;5030520;28;20529;-78
2023/08/26 09:39:22;;;;;;;6.93;6.20;;;23.80;1.00;;;;;;5017320;28;20883;-79
2023/08/26 09:41:50;;;;;;;6.63;6.13;;;24.10;1.00;;;;;;5009850;28;20466;-80
2023/08/26 09:44:21;;;;;;;5.50;5.10;;;24.40;1.00;;;;;;5030280;28;20453;-80
2023/08/26 09:46:48;;;;;;;5.27;4.87;;;24.70;1.00;;;;;;5041520;28;20516;-79
2023/08/26 09:49:17;;;;;;;8.50;7.23;;;24.90;1.00;;;;;;5031372;28;20556;-79
2023/08/26 09:51:47;;;;;;;7.40;6.57;;;25.10;1.00;;;;;;5030650;28;20497;-80
2023/08/26 09:54:17;;;;;;;8.03;7.37;;;25.50;1.00;;;;;;5033084;28;22057;-80
2023/08/26 09:56:46;;;;;;;7.10;6.40;;;25.50;1.00;;;;;;5031313;28;20565;-79
2023/08/26 09:59:14;;;;;;;7.57;6.73;;;25.20;1.00;;;;;;5028928;28;20483;-78
2023/08/26 10:01:42;;;;;;;6.80;6.20;;;25.50;1.00;;;;;;5027366;28;20499;-78
2023/08/26 10:04:10;;;;;;;6.90;6.30;;;26.10;1.00;;;;;;5029068;28;20460;-77
2023/08/26 10:06:41;;;;;;;7.90;7.30;;;27.20;1.00;;;;;;5027970;28;20940;-77
2023/08/26 10:09:18;;;;;;;9.90;8.20;;;28.20;1.00;;;;;;5029503;28;20457;-76
2023/08/26 10:11:53;;;;;;;9.03;7.93;;;28.50;1.00;;;;;;5026652;28;20484;-78
2023/08/26 10:14:22;;;;;;;8.67;7.87;;;28.10;1.00;;;;;;5022300;28;20515;-77
2023/08/26 10:16:51;;;;;;;9.60;8.57;;;28.00;1.00;;;;;;5038772;28;20511;-77
2023/08/26 10:19:19;;;;;;;8.70;8.00;;;28.10;1.00;;;;;;5029393;28;20513;-78
2023/08/26 10:21:46;;;;;;;8.47;7.77;;;28.50;1.00;;;;;;5031349;28;20476;-78
2023/08/26 10:24:15;;;;;;;10.70;9.90;;;29.20;1.00;;;;;;5032041;28;20852;-76
2023/08/26 10:26:42;;;;;;;9.43;8.70;;;29.70;1.00;;;;;;5029030;28;20579;-76
2023/08/26 10:29:11;;;;;;;8.77;8.07;;;30.10;1.00;;;;;;5022354;28;20520;-78
2023/08/26 10:31:43;;;;;;;9.30;8.50;;;30.80;1.00;;;;;;5027311;28;20516;-77
2023/08/26 10:34:17;;;;;;;7.93;7.23;;;31.90;1.00;;;;;;5022944;28;20547;-77
2023/08/26 10:36:48;;;;;;;8.97;8.27;;;32.70;1.00;;;;;;5019646;28;20447;-79
2023/08/26 10:39:18;;;;;;;10.30;9.50;;;32.40;1.00;;;;;;5030612;28;20468;-76
2023/08/26 10:42:12;;;;;;;9.23;8.40;;;32.60;1.00;;;;;;5030238;28;20502;-77
2023/08/26 10:44:43;;;;;;;9.17;8.37;;;32.30;1.00;;;;;;5020321;28;20457;-77
2023/08/26 10:47:11;;;;;;;9.23;8.43;;;32.10;1.00;;;;;;5030645;28;20433;-77
2023/08/26 10:49:38;;;;;;;9.63;8.83;;;31.80;1.00;;;;;;5026533;28;20462;-76
2023/08/26 10:52:09;;;;;;;9.03;8.33;;;32.40;1.00;;;;;;5029312;28;20480;-76
2023/08/26 10:54:37;;;;;;;8.97;8.03;;;33.30;1.00;;;;;;5030274;28;20557;-77
2023/08/26 10:57:07;;;;;;;9.33;8.30;;;33.20;1.00;;;;;;5024793;28;20458;-77
2023/08/26 10:59:38;;;;;;;8.33;7.63;;;33.50;1.00;;;;;;5028073;28;20475;-78
2023/08/26 11:02:08;;;;;;;8.33;7.53;;;32.50;1.00;;;;;;5029307;28;20508;-78
2023/08/26 11:04:42;;;;;;;7.70;7.00;;;32.50;1.00;;;;;;5023133;28;20462;-77
2023/08/26 11:07:15;;;;;;;8.70;8.00;;;33.70;1.00;;;;;;5027471;28;20457;-76
2023/08/26 11:09:43;;;;;;;9.27;8.47;;;33.70;1.00;;;;;;5027421;28;20535;-78
2023/08/26 11:12:25;;;;;;;8.10;7.40;;;32.50;1.00;;;;;;5029592;28;20472;-76
2023/08/26 11:14:52;;;;;;;7.60;6.87;;;30.90;1.00;;;;;;5026406;28;20452;-77
2023/08/26 11:17:23;;;;;;;8.43;7.57;;;30.30;1.00;;;;;;5024674;28;20457;-76
2023/08/26 11:19:50;;;;;;;8.27;7.53;;;30.40;1.00;;;;;;5031686;28;20885;-77
2023/08/26 11:22:17;;;;;;;9.20;7.40;;;32.10;1.00;;;;;;5031004;28;20433;-76
2023/08/26 11:24:48;;;;;;;7.80;7.20;;;32.30;1.00;;;;;;5029558;28;20458;-76
2023/08/26 11:27:17;;;;;;;7.00;6.43;;;31.80;1.00;;;;;;5029080;28;20493;-76
2023/08/26 11:29:44;;;;;;;7.63;7.00;;;31.50;1.00;;;;;;5024143;28;20461;-77
2023/08/26 11:32:12;;;;;;;9.17;6.73;;;31.40;1.00;;;;;;5026992;28;20511;-77
2023/08/26 11:34:48;;;;;;;7.83;7.17;;;32.20;1.00;;;;;;5027500;28;20995;-77
2023/08/26 11:37:19;;;;;;;8.40;7.70;;;32.70;1.00;;;;;;5023562;28;20520;-77
2023/08/26 11:39:46;;;;;;;6.53;6.03;;;32.20;1.00;;;;;;5025421;28;20508;-76
2023/08/26 11:42:16;;;;;;;7.80;7.10;;;31.80;1.00;;;;;;5021531;28;20529;-77
2023/08/26 11:44:46;;;;;;;6.47;5.97;;;31.60;1.00;;;;;;5025906;28;20918;-77
2023/08/26 11:47:14;;;;;;;6.90;6.30;;;31.10;1.00;;;;;;5014436;28;21224;-76
2023/08/26 11:49:45;;;;;;;7.47;6.73;;;31.60;1.00;;;;;;5023481;28;20461;-77
2023/08/26 11:52:16;;;;;;;5.20;4.80;;;31.80;1.00;;;;;;5019295;28;20556;-75
2023/08/26 11:54:44;;;;;;;5.80;5.20;;;31.10;1.00;;;;;;5017522;28;20465;-77
2023/08/26 11:57:13;;;;;;;7.83;6.20;;;30.40;1.00;;;;;;5015377;28;20548;-77
2023/08/26 11:59:42;;;;;;;5.90;5.50;;;30.10;1.00;;;;;;5028076;28;20462;-76
2023/08/26 12:02:22;;;;;;;6.20;5.40;;;29.60;1.00;;;;;;5023785;28;20484;-76
2023/08/26 12:04:58;;;;;;;6.93;5.77;;;29.10;1.00;;;;;;5022336;28;20466;-77
2023/08/26 12:07:25;;;;;;;8.40;5.40;;;29.00;1.00;;;;;;5022958;28;20503;-77
2023/08/26 12:09:53;;;;;;;7.37;6.00;;;29.50;1.00;;;;;;5024479;28;20907;-77
2023/08/26 12:12:21;;;;;;;5.53;5.03;;;29.40;1.00;;;;;;5022319;28;20531;-77
2023/08/26 12:14:49;;;;;;;7.10;4.87;;;29.30;1.00;;;;;;5023487;28;20940;-76
2023/08/26 12:17:17;;;;;;;4.60;4.20;;;31.00;1.00;;;;;;5022454;28;20867;-77
2023/08/26 12:19:44;;;;;;;5.67;5.07;;;33.20;1.00;;;;;;5024578;28;20922;-79
2023/08/26 12:22:13;;;;;;;4.70;4.30;;;34.40;1.00;;;;;;5015516;28;20494;-77
2023/08/26 12:24:40;;;;;;;4.63;4.23;;;33.60;1.00;;;;;;5024321;28;20469;-77
2023/08/26 12:27:09;;;;;;;4.87;4.43;;;32.90;1.00;;;;;;5023501;28;20453;-76
2023/08/26 12:29:36;;;;;;;5.03;4.57;;;31.60;1.00;;;;;;5020076;28;20473;-78
2023/08/26 12:32:04;;;;;;;5.50;5.00;;;31.10;1.00;;;;;;5023491;28;20556;-78
2023/08/26 12:34:31;;;;;;;5.23;4.73;;;32.00;1.00;;;;;;5025329;28;20449;-77
2023/08/26 12:36:58;;;;;;;4.57;4.27;;;33.80;1.00;;;;;;5016788;28;20474;-76
2023/08/26 12:39:27;;;;;;;4.63;4.20;;;35.30;1.00;;;;;;5025182;28;20535;-77
2023/08/26 12:41:54;;;;;;;4.30;3.87;;;36.70;1.00;;;;;;5030212;28;20936;-77
2023/08/26 12:44:23;;;;;;;4.23;3.90;;;37.90;1.00;;;;;;5028155;28;20437;-77
2023/08/26 12:46:52;;;;;;;4.40;4.00;;;39.30;1.00;;;;;;5019311;28;20462;-78
2023/08/26 12:49:19;;;;;;;4.23;3.77;;;40.10;1.00;;;;;;5024889;28;21200;-78
2023/08/26 12:51:46;;;;;;;8.40;4.03;;;39.50;1.00;;;;;;5027605;28;20534;-77
2023/08/26 12:54:14;;;;;;;4.50;4.10;;;39.00;1.00;;;;;;5033903;28;20460;-77
2023/08/26 12:56:44;;;;;;;4.37;3.97;;;39.10;1.00;;;;;;5028576;28;20833;-77
2023/08/26 12:59:12;;;;;;;4.60;4.17;;;39.70;1.00;;;;;;5028549;28;21495;-78
2023/08/26 13:01:39;;;;;;;4.70;4.10;;;39.50;1.00;;;;;;5027290;28;21246;-77